Time;durP1;ratioP1;P1;durP2;ratioP2;P2;SDS_P1;SDS_P2;PMS_P1;PMS_P2;Temp;Humidity;BMP_temperature;BMP_pressure;BME280_temperature;BME280_humidity;BME280_pressure;Samples;Min_cycle;Max_cycle;Signal;HPM_P1;HPM_P2
2022/08/11 00:01:22;;;;;;;5.53;1.05;;;24.00;53.40;;;;;;5056734;28;20031;-84
2022/08/11 00:03:54;;;;;;;3.97;1.02;;;24.00;53.40;;;;;;5074407;28;20096;-83
2022/08/11 00:06:32;;;;;;;2.78;0.82;;;24.00;53.40;;;;;;5090038;28;20025;-82
2022/08/11 00:08:59;;;;;;;3.40;1.00;;;24.00;53.60;;;;;;5074205;28;20031;-84
2022/08/11 00:11:39;;;;;;;2.90;1.13;;;24.00;53.70;;;;;;5056511;28;20023;-84
2022/08/11 00:14:32;;;;;;;3.28;0.88;;;23.90;53.90;;;;;;5090114;28;20028;-84
2022/08/11 00:17:02;;;;;;;1.98;0.98;;;23.90;54.00;;;;;;5057223;28;20472;-84
2022/08/11 00:19:45;;;;;;;1.80;0.90;;;23.80;54.00;;;;;;5056261;28;20024;-83
2022/08/11 00:22:18;;;;;;;1.83;1.15;;;23.70;54.20;;;;;;5056089;28;20052;-85
2022/08/11 00:24:44;;;;;;;2.55;0.90;;;23.70;54.80;;;;;;5056207;28;20021;-84
2022/08/11 00:27:10;;;;;;;3.22;0.90;;;23.70;54.20;;;;;;5072593;28;20028;-78
2022/08/11 00:29:36;;;;;;;2.17;1.02;;;23.70;54.30;;;;;;5056345;28;20035;-78
2022/08/11 00:32:04;;;;;;;1.88;0.85;;;23.60;54.40;;;;;;5089628;28;20434;-77
2022/08/11 00:34:36;;;;;;;4.07;0.88;;;23.60;55.10;;;;;;5056026;28;20035;-78
2022/08/11 00:37:11;;;;;;;3.80;0.90;;;23.60;54.70;;;;;;5074246;28;20025;-77
2022/08/11 00:39:47;;;;;;;3.30;1.10;;;23.60;54.90;;;;;;5056225;28;20039;-77
2022/08/11 00:42:22;;;;;;;2.00;0.90;;;23.50;55.00;;;;;;5057057;28;20326;-77
2022/08/11 00:45:18;;;;;;;3.53;0.80;;;23.50;55.20;;;;;;5089660;28;20086;-77
2022/08/11 00:48:22;;;;;;;4.05;1.13;;;23.40;55.30;;;;;;5055850;28;20032;-84
2022/08/11 00:51:14;;;;;;;2.15;0.80;;;23.40;55.50;;;;;;5048707;28;20510;-83
2022/08/11 00:53:55;;;;;;;3.45;1.00;;;23.30;55.60;;;;;;5055800;28;20024;-77
2022/08/11 00:56:39;;;;;;;2.70;0.93;;;23.30;55.70;;;;;;5089566;28;20025;-77
2022/08/11 00:59:17;;;;;;;1.80;0.77;;;23.30;55.90;;;;;;5073891;28;20031;-77
2022/08/11 01:02:06;;;;;;;3.78;1.10;;;23.20;55.90;;;;;;5089383;28;20068;-77
2022/08/11 01:05:09;;;;;;;1.55;0.70;;;23.20;56.10;;;;;;5036094;28;20032;-78
2022/08/11 01:07:52;;;;;;;1.95;0.82;;;23.20;56.30;;;;;;5089327;28;20061;-85
2022/08/11 01:11:01;;;;;;;3.95;0.90;;;23.10;56.30;;;;;;5073332;28;20485;-86
2022/08/11 01:13:50;;;;;;;3.25;0.80;;;23.10;56.50;;;;;;5055672;28;20028;-84
2022/08/11 01:16:45;;;;;;;2.40;1.15;;;23.00;56.50;;;;;;5089001;28;20376;-84
2022/08/11 01:20:07;;;;;;;3.67;1.10;;;23.00;56.60;;;;;;5055761;28;20391;-85
2022/08/11 01:22:57;;;;;;;2.75;0.75;;;23.00;56.90;;;;;;5065994;28;20496;-85
2022/08/11 01:25:46;;;;;;;4.63;0.80;;;22.90;56.90;;;;;;5088890;28;20029;-84
2022/08/11 01:28:30;;;;;;;3.33;0.95;;;22.90;57.20;;;;;;5073213;28;20473;-84
2022/08/11 01:31:17;;;;;;;2.70;0.88;;;22.80;57.10;;;;;;5088922;28;20476;-85
2022/08/11 01:34:03;;;;;;;2.80;0.90;;;22.80;57.30;;;;;;5088848;28;20020;-83
2022/08/11 01:36:53;;;;;;;5.53;0.93;;;22.80;58.10;;;;;;5088839;28;20476;-84
2022/08/11 01:39:43;;;;;;;2.53;0.90;;;22.80;57.60;;;;;;5088784;28;20032;-84
2022/08/11 01:46:16;;;;;;;5.10;0.90;;;22.70;57.90;;;;;;5073685;28;20063;-83
2022/08/11 01:48:48;;;;;;;1.70;0.80;;;22.70;58.10;;;;;;5043325;28;20036;-84
2022/08/11 01:51:52;;;;;;;1.98;0.75;;;22.60;57.90;;;;;;5077165;28;20108;-83
2022/08/11 01:54:29;;;;;;;2.55;0.98;;;22.60;58.20;;;;;;5077007;28;20031;-83
2022/08/11 01:57:10;;;;;;;2.47;0.70;;;22.50;58.20;;;;;;5077013;28;20089;-83
2022/08/11 01:59:48;;;;;;;2.97;1.20;;;22.60;58.50;;;;;;5076969;28;20077;-83
2022/08/11 02:02:46;;;;;;;2.67;0.82;;;22.50;58.70;;;;;;5091910;28;20056;-83
2022/08/11 02:05:40;;;;;;;2.00;0.90;;;22.50;59.00;;;;;;5092538;28;20078;-83
2022/08/11 02:08:43;;;;;;;2.55;0.90;;;22.40;59.10;;;;;;5092807;28;20118;-84
2022/08/11 02:11:29;;;;;;;5.70;1.00;;;22.40;59.10;;;;;;5092256;28;20060;-83
2022/08/11 02:14:28;;;;;;;2.10;0.90;;;22.30;59.30;;;;;;5092694;28;20029;-83
2022/08/11 02:17:17;;;;;;;1.95;0.80;;;22.30;59.50;;;;;;5058501;28;20108;-84
2022/08/11 02:25:28;;;;;;;2.47;0.82;;;22.20;59.70;;;;;;5076784;28;20023;-84
2022/08/11 02:28:07;;;;;;;5.22;1.10;;;22.20;59.80;;;;;;5076428;28;20032;-84
2022/08/11 02:30:40;;;;;;;2.45;1.00;;;22.10;60.10;;;;;;5076304;28;20020;-84
2022/08/11 02:33:23;;;;;;;3.33;1.07;;;22.10;60.20;;;;;;5058400;28;20021;-84
2022/08/11 02:36:03;;;;;;;2.90;0.90;;;22.00;60.20;;;;;;5058357;28;20025;-84
2022/08/11 02:38:32;;;;;;;6.75;1.10;;;22.00;60.40;;;;;;5091751;28;20032;-84
2022/08/11 02:44:42;;;;;;;2.35;0.90;;;21.90;60.50;;;;;;5076169;28;20054;-82
2022/08/11 02:47:13;;;;;;;3.05;0.93;;;21.90;60.60;;;;;;5076466;28;20385;-82
2022/08/11 02:50:22;;;;;;;1.58;0.82;;;21.90;60.60;;;;;;5058021;28;20024;-82
2022/08/11 02:53:13;;;;;;;1.98;0.75;;;21.80;60.90;;;;;;5038887;28;20040;-83
2022/08/11 02:55:45;;;;;;;3.42;1.13;;;21.80;60.90;;;;;;5057940;28;20028;-82
2022/08/11 02:58:16;;;;;;;2.42;1.05;;;21.80;60.90;;;;;;5089990;28;20499;-82
2022/08/11 03:01:02;;;;;;;3.50;0.70;;;21.80;61.00;;;;;;5075871;28;20170;-82
2022/08/11 03:03:56;;;;;;;3.45;1.23;;;21.70;61.10;;;;;;5057895;28;20130;-82
2022/08/11 03:06:37;;;;;;;4.25;0.90;;;21.70;61.20;;;;;;5091418;28;20021;-83
2022/08/11 03:09:29;;;;;;;3.45;0.75;;;21.70;61.40;;;;;;5075441;28;20016;-82
2022/08/11 03:18:01;;;;;;;3.42;0.93;;;21.60;61.70;;;;;;5075639;28;20036;-83
2022/08/11 03:20:53;;;;;;;3.60;1.13;;;21.60;61.80;;;;;;5075390;28;20158;-82
2022/08/11 03:23:22;;;;;;;3.10;0.88;;;21.50;61.90;;;;;;5036986;28;20040;-82
2022/08/11 03:26:12;;;;;;;2.47;1.00;;;21.50;61.90;;;;;;5090922;28;20025;-82
2022/08/11 03:29:15;;;;;;;2.35;1.10;;;21.40;62.20;;;;;;5057272;28;20032;-82
2022/08/11 03:31:49;;;;;;;3.60;1.00;;;21.40;62.40;;;;;;5075187;28;20020;-82
2022/08/11 03:34:20;;;;;;;3.85;1.00;;;21.40;62.40;;;;;;5057248;28;20496;-82
2022/08/11 03:36:56;;;;;;;5.97;1.10;;;21.40;62.60;;;;;;5057335;28;20024;-83
2022/08/11 03:39:56;;;;;;;4.60;1.30;;;21.30;62.70;;;;;;5057100;28;20384;-82
2022/08/11 03:42:33;;;;;;;4.03;1.27;;;21.30;62.80;;;;;;5057950;28;20016;-82
2022/08/11 03:45:11;;;;;;;2.47;1.08;;;21.30;62.80;;;;;;5090551;28;20023;-84
2022/08/11 03:47:50;;;;;;;4.85;1.23;;;21.30;63.00;;;;;;5056936;28;20090;-82
2022/08/11 03:50:49;;;;;;;3.85;1.17;;;21.20;63.10;;;;;;5090466;28;20024;-82
2022/08/11 03:53:46;;;;;;;2.80;1.05;;;21.20;63.20;;;;;;5074834;28;20039;-83
2022/08/11 03:56:45;;;;;;;2.97;1.10;;;21.10;63.20;;;;;;5074680;28;20027;-83
2022/08/11 04:00:01;;;;;;;2.80;1.13;;;21.10;63.40;;;;;;5074724;28;20027;-82
2022/08/11 04:02:39;;;;;;;3.40;1.08;;;21.10;63.50;;;;;;5056694;28;20048;-83
2022/08/11 04:05:14;;;;;;;4.72;1.00;;;21.00;63.40;;;;;;5090146;28;20025;-83
2022/08/11 04:08:17;;;;;;;3.15;1.02;;;21.00;63.60;;;;;;5090126;28;20078;-82
2022/08/11 04:11:01;;;;;;;4.10;1.02;;;21.00;63.70;;;;;;5056383;28;20088;-83
2022/08/11 04:17:19;;;;;;;2.88;1.05;;;20.90;63.80;;;;;;5074649;28;20031;-82
2022/08/11 04:20:12;;;;;;;2.63;1.05;;;20.90;63.80;;;;;;5089830;28;20048;-82
2022/08/11 04:23:31;;;;;;;5.95;1.30;;;20.90;63.90;;;;;;5089070;28;20429;-83
2022/08/11 04:26:34;;;;;;;4.43;1.30;;;20.90;64.00;;;;;;5034163;28;20032;-82
2022/08/11 04:29:24;;;;;;;2.90;1.20;;;20.80;64.10;;;;;;5056105;28;20032;-83
2022/08/11 04:32:33;;;;;;;8.38;1.40;;;20.80;64.20;;;;;;5056142;28;20028;-83
2022/08/11 04:35:16;;;;;;;3.33;1.13;;;20.80;64.50;;;;;;5030235;28;20044;-83
2022/08/11 04:37:54;;;;;;;3.03;1.38;;;20.80;64.50;;;;;;5036038;28;20090;-83
2022/08/11 04:40:53;;;;;;;4.35;1.42;;;20.80;64.60;;;;;;5069247;28;20025;-82
2022/08/11 04:43:51;;;;;;;4.28;1.50;;;20.80;64.80;;;;;;5036068;28;20021;-83
2022/08/11 04:46:58;;;;;;;3.38;1.10;;;20.80;64.90;;;;;;5014040;28;20473;-82
2022/08/11 05:02:56;;;;;;;4.15;1.23;;;20.70;65.00;;;;;;5054034;28;20059;-83
2022/08/11 05:05:49;;;;;;;2.17;1.00;;;20.80;65.10;;;;;;5035794;28;20025;-77
2022/08/11 05:08:37;;;;;;;4.70;1.27;;;20.80;65.10;;;;;;5053609;28;20055;-77
2022/08/11 05:11:51;;;;;;;2.72;1.08;;;20.80;65.10;;;;;;5087335;28;20052;-77
2022/08/11 05:34:52;;;;;;;3.58;1.30;;;20.90;65.10;;;;;;5073592;28;20051;-78
2022/08/11 05:37:33;;;;;;;4.07;1.20;;;20.90;65.10;;;;;;5073151;28;20035;-77
2022/08/11 05:57:20;;;;;;;6.68;1.13;;;21.10;64.60;;;;;;5053572;28;20491;-76
2022/08/11 05:59:46;;;;;;;2.35;1.15;;;21.20;64.60;;;;;;5035367;28;20473;-76
2022/08/11 06:02:13;;;;;;;2.78;1.10;;;21.20;64.50;;;;;;5068943;28;20029;-75
2022/08/11 06:04:39;;;;;;;3.35;1.23;;;21.30;64.60;;;;;;5053100;28;20092;-76
2022/08/11 06:07:08;;;;;;;2.70;1.20;;;21.30;64.50;;;;;;5068597;28;20482;-76
2022/08/11 06:09:47;;;;;;;4.43;1.65;;;21.30;64.50;;;;;;5053244;28;20071;-76
2022/08/11 06:12:29;;;;;;;5.55;1.48;;;21.40;64.40;;;;;;5035105;28;20379;-76
2022/08/11 06:15:00;;;;;;;3.10;1.10;;;21.40;64.20;;;;;;5052792;28;20082;-76
2022/08/11 06:17:30;;;;;;;2.83;1.20;;;21.50;64.10;;;;;;5053249;28;20033;-76
2022/08/11 06:20:11;;;;;;;3.20;1.25;;;21.50;64.00;;;;;;5052965;28;20097;-76
2022/08/11 06:22:54;;;;;;;3.20;1.25;;;21.50;63.90;;;;;;5035513;28;20111;-76
2022/08/11 06:25:21;;;;;;;5.18;1.20;;;21.60;63.80;;;;;;5053383;28;20028;-76
2022/08/11 06:27:57;;;;;;;3.55;1.33;;;21.60;63.60;;;;;;5051821;28;20029;-76
2022/08/11 06:30:34;;;;;;;3.45;1.20;;;21.70;63.50;;;;;;5034734;28;20104;-76
2022/08/11 06:33:00;;;;;;;2.55;1.20;;;21.80;63.30;;;;;;5055072;28;20507;-76
2022/08/11 06:35:35;;;;;;;3.95;1.40;;;21.80;63.00;;;;;;5038524;28;20036;-76
2022/08/11 06:38:09;;;;;;;3.03;1.40;;;21.80;62.80;;;;;;5056093;28;20029;-76
2022/08/11 06:44:05;;;;;;;3.10;1.23;;;21.80;62.50;;;;;;5056507;28;20040;-76
2022/08/11 06:46:38;;;;;;;4.30;1.60;;;21.90;62.20;;;;;;5071659;28;20025;-76
2022/08/11 06:51:55;;;;;;;4.20;1.27;;;22.00;62.10;;;;;;5069301;28;20040;-76
2022/08/11 06:54:22;;;;;;;2.65;1.25;;;22.00;62.00;;;;;;5056350;28;20019;-76
2022/08/11 07:02:25;;;;;;;4.88;1.33;;;22.10;61.70;;;;;;5056256;28;20516;-76
2022/08/11 07:05:00;;;;;;;4.15;1.15;;;22.20;61.80;;;;;;5055814;28;20108;-76
2022/08/11 07:16:33;;;;;;;3.03;1.10;;;22.30;61.30;;;;;;5068677;28;20078;-77
2022/08/11 07:30:39;;;;;;;4.03;1.10;;;22.50;60.50;;;;;;5054226;28;20124;-77
2022/08/11 07:33:06;;;;;;;3.20;0.85;;;22.60;60.30;;;;;;5055542;28;20052;-77
2022/08/11 07:35:34;;;;;;;2.25;1.00;;;22.60;60.10;;;;;;5037660;28;20041;-77
2022/08/11 07:38:15;;;;;;;9.75;1.63;;;22.70;60.70;;;;;;5070600;28;20021;-81
2022/08/11 07:40:42;;;;;;;3.05;0.90;;;22.70;60.00;;;;;;5037633;28;20017;-82
2022/08/11 07:43:10;;;;;;;2.33;1.05;;;22.80;60.00;;;;;;5054232;28;20116;-81
2022/08/11 07:54:04;;;;;;;2.72;1.10;;;23.00;59.80;;;;;;5055111;28;20143;-75
2022/08/11 07:56:37;;;;;;;3.35;1.60;;;23.00;59.60;;;;;;5036704;28;20037;-75
2022/08/11 08:18:26;;;;;;;3.90;1.30;;;23.50;59.10;;;;;;5033410;28;20087;-81
2022/08/11 08:20:54;;;;;;;5.22;1.45;;;23.60;59.00;;;;;;5033108;28;20397;-82
2022/08/11 08:23:33;;;;;;;2.05;1.00;;;23.60;58.80;;;;;;5033041;28;20021;-81
2022/08/11 08:26:02;;;;;;;2.63;1.00;;;23.60;58.60;;;;;;5034269;28;20025;-82
2022/08/11 08:28:28;;;;;;;2.22;0.93;;;23.70;58.60;;;;;;5032923;28;20529;-81
2022/08/11 08:30:55;;;;;;;4.43;1.13;;;23.80;58.50;;;;;;5034417;28;20042;-82
2022/08/11 08:33:26;;;;;;;3.50;1.38;;;23.90;58.50;;;;;;5034291;28;20026;-81
2022/08/11 08:36:15;;;;;;;2.60;1.35;;;23.90;58.30;;;;;;5034394;28;20033;-82
2022/08/11 08:38:52;;;;;;;4.45;1.60;;;24.00;58.20;;;;;;5032768;28;20032;-82
2022/08/11 08:41:33;;;;;;;4.28;1.92;;;24.00;57.90;;;;;;5033141;28;20079;-81
2022/08/11 08:44:05;;;;;;;5.60;1.42;;;24.10;57.70;;;;;;5032709;28;20033;-81
2022/08/11 08:46:36;;;;;;;4.03;1.35;;;24.10;57.40;;;;;;5034062;28;20381;-81
2022/08/11 08:49:03;;;;;;;2.95;1.15;;;24.20;57.30;;;;;;5032640;28;20018;-81
2022/08/11 08:51:34;;;;;;;6.22;1.50;;;24.30;57.20;;;;;;5032717;28;20490;-81
2022/08/11 08:54:29;;;;;;;2.78;1.27;;;24.30;57.20;;;;;;5033972;28;20025;-82
2022/08/11 08:56:55;;;;;;;2.63;1.30;;;24.40;57.30;;;;;;5032189;28;20363;-81
2022/08/11 08:59:25;;;;;;;2.97;1.23;;;24.50;57.30;;;;;;5033794;28;20025;-81
2022/08/11 09:01:59;;;;;;;4.20;1.38;;;24.50;57.10;;;;;;5033784;28;20036;-81
2022/08/11 09:04:26;;;;;;;4.50;1.42;;;24.60;57.00;;;;;;5034002;28;20018;-82
2022/08/11 09:06:53;;;;;;;3.20;1.00;;;24.60;57.00;;;;;;5033613;28;20026;-82
2022/08/11 09:09:23;;;;;;;7.82;1.23;;;24.70;56.80;;;;;;5034197;28;20029;-82
2022/08/11 09:11:49;;;;;;;2.72;1.20;;;24.80;56.50;;;;;;5035507;28;20144;-82
2022/08/11 09:17:22;;;;;;;7.10;1.60;;;24.90;56.20;;;;;;5053701;28;20045;-77
2022/08/11 09:19:52;;;;;;;2.80;1.23;;;25.00;56.10;;;;;;5069277;28;20032;-77
2022/08/11 09:27:50;;;;;;;3.35;1.50;;;25.20;55.40;;;;;;5053593;28;20448;-78
2022/08/11 09:30:17;;;;;;;2.80;1.10;;;25.30;55.30;;;;;;5052312;28;20029;-76
2022/08/11 09:32:43;;;;;;;5.15;1.27;;;25.40;55.10;;;;;;5068652;28;20029;-77
2022/08/11 09:35:10;;;;;;;2.55;1.08;;;25.40;54.90;;;;;;5051880;28;20179;-77
2022/08/11 09:40:30;;;;;;;3.17;1.10;;;25.60;54.70;;;;;;5053364;28;20500;-77
2022/08/11 09:45:51;;;;;;;5.43;1.38;;;25.80;54.50;;;;;;5053437;28;20369;-77
2022/08/11 09:48:22;;;;;;;6.30;1.33;;;25.80;54.00;;;;;;5053399;28;20029;-77
2022/08/11 09:50:50;;;;;;;4.10;1.30;;;25.90;53.50;;;;;;5035270;28;20017;-78
2022/08/11 09:53:18;;;;;;;3.15;1.10;;;26.00;53.40;;;;;;5053356;28;20073;-78
2022/08/11 09:55:45;;;;;;;3.92;1.50;;;26.10;53.30;;;;;;5035118;28;20033;-77
2022/08/11 09:58:15;;;;;;;2.25;1.10;;;26.20;53.20;;;;;;5034925;28;20032;-77
2022/08/11 10:00:42;;;;;;;4.25;1.80;;;26.20;53.00;;;;;;5051938;28;20160;-77
2022/08/11 10:03:12;;;;;;;3.28;1.40;;;26.30;52.70;;;;;;5068500;28;20025;-77
2022/08/11 10:08:28;;;;;;;2.42;1.00;;;26.50;52.30;;;;;;5056738;28;20377;-77
2022/08/11 10:10:56;;;;;;;3.72;1.38;;;26.60;52.00;;;;;;5071881;28;20057;-77
2022/08/11 10:13:32;;;;;;;5.80;1.40;;;26.70;51.60;;;;;;5038658;28;20029;-78
2022/08/11 10:16:02;;;;;;;5.03;1.10;;;26.80;51.40;;;;;;5056899;28;20029;-82
2022/08/11 10:18:48;;;;;;;4.95;1.25;;;26.80;51.10;;;;;;5038740;28;20051;-83
2022/08/11 10:21:27;;;;;;;3.17;1.13;;;26.90;50.90;;;;;;5056748;28;20071;-82
2022/08/11 10:26:53;;;;;;;4.38;1.50;;;27.20;50.70;;;;;;5056640;28;20031;-82
2022/08/11 10:34:55;;;;;;;4.82;1.35;;;27.70;49.50;;;;;;5056884;28;20039;-82
2022/08/11 10:37:22;;;;;;;2.80;0.98;;;27.90;49.30;;;;;;5055086;28;20044;-82
2022/08/11 10:39:49;;;;;;;3.05;1.27;;;28.10;49.10;;;;;;5056432;28;20043;-81
2022/08/11 10:45:02;;;;;;;4.32;1.17;;;28.40;48.50;;;;;;5056429;28;20227;-82
2022/08/11 10:47:38;;;;;;;4.43;1.05;;;28.70;48.10;;;;;;5038365;28;20029;-82
2022/08/11 11:01:31;;;;;;;5.45;0.82;;;29.80;46.60;;;;;;5069500;28;20032;-82
2022/08/11 11:04:19;;;;;;;2.97;0.75;;;30.10;45.60;;;;;;5069366;28;20029;-83
2022/08/11 11:07:13;;;;;;;2.47;0.90;;;30.40;44.90;;;;;;5055758;28;20025;-81
2022/08/11 11:09:53;;;;;;;3.70;0.70;;;30.60;44.50;;;;;;5055817;28;20021;-83
2022/08/11 11:18:15;;;;;;;1.92;0.82;;;31.30;43.80;;;;;;5055470;28;20104;-82
2022/08/11 11:20:56;;;;;;;1.67;0.90;;;31.60;43.20;;;;;;5051163;28;20041;-82
2022/08/11 11:23:36;;;;;;;4.90;0.80;;;31.90;42.90;;;;;;5055136;28;20024;-77
2022/08/11 11:26:15;;;;;;;5.03;0.65;;;32.10;42.30;;;;;;5071730;28;20373;-76
2022/08/11 11:29:02;;;;;;;2.20;0.80;;;32.40;42.40;;;;;;5055693;28;20104;-77
2022/08/11 11:31:34;;;;;;;4.03;0.95;;;32.60;41.50;;;;;;5055407;28;20025;-77
2022/08/11 11:34:19;;;;;;;2.70;0.98;;;32.80;41.70;;;;;;5055465;28;20033;-78
2022/08/11 11:36:49;;;;;;;4.95;1.02;;;33.10;40.60;;;;;;5055208;28;20083;-77
2022/08/11 11:39:22;;;;;;;3.55;0.85;;;33.30;40.40;;;;;;5037243;28;20017;-77
2022/08/11 11:41:50;;;;;;;1.83;0.80;;;33.50;39.90;;;;;;5054995;28;20066;-77
2022/08/11 11:44:16;;;;;;;5.05;0.80;;;33.80;39.90;;;;;;5055563;28;20475;-77
2022/08/11 11:46:44;;;;;;;2.35;0.80;;;34.00;39.70;;;;;;5054888;28;20453;-77
2022/08/11 11:49:11;;;;;;;2.22;0.70;;;34.20;39.30;;;;;;5054976;28;20083;-78
2022/08/11 11:51:37;;;;;;;2.25;0.70;;;34.40;38.90;;;;;;5054907;28;20025;-82
2022/08/11 11:54:04;;;;;;;2.67;0.85;;;34.60;38.60;;;;;;5054766;28;20035;-83
2022/08/11 11:56:31;;;;;;;3.75;0.70;;;34.80;38.40;;;;;;5069969;28;20021;-82
2022/08/11 12:01:43;;;;;;;1.55;0.70;;;35.20;37.80;;;;;;5073674;28;20047;-83
2022/08/11 12:04:11;;;;;;;3.55;0.73;;;35.40;37.60;;;;;;5074693;28;20088;-81
2022/08/11 12:06:37;;;;;;;1.75;0.73;;;35.60;37.30;;;;;;5056568;28;20419;-81
2022/08/11 12:09:04;;;;;;;3.78;1.00;;;35.80;37.00;;;;;;5074664;28;20020;-81
2022/08/11 12:14:17;;;;;;;1.98;0.63;;;36.20;36.40;;;;;;5074609;28;20094;-81
2022/08/11 12:16:46;;;;;;;2.45;0.95;;;36.50;35.90;;;;;;5056332;28;20020;-81
2022/08/11 12:19:20;;;;;;;3.50;0.60;;;36.60;35.30;;;;;;5039817;28;20123;-82
2022/08/11 12:27:28;;;;;;;2.50;0.80;;;37.20;34.80;;;;;;5074497;28;20054;-82
2022/08/11 12:29:57;;;;;;;3.33;0.80;;;37.40;34.50;;;;;;5073923;28;20024;-82
2022/08/11 12:32:26;;;;;;;1.95;0.60;;;37.60;34.20;;;;;;5072827;28;20021;-82
2022/08/11 12:34:55;;;;;;;1.60;0.70;;;37.80;33.70;;;;;;5071900;28;20024;-76
2022/08/11 12:37:29;;;;;;;2.08;0.80;;;38.00;33.20;;;;;;5072577;28;20111;-77
2022/08/11 12:45:35;;;;;;;2.53;0.80;;;38.70;32.70;;;;;;5074301;28;20028;-78
2022/08/11 12:54:04;;;;;;;3.70;0.80;;;39.30;32.50;;;;;;5074419;28;20054;-76
2022/08/11 13:05:04;;;;;;;2.30;0.68;;;40.00;31.70;;;;;;5074286;28;20039;-76
2022/08/11 13:07:32;;;;;;;2.40;0.73;;;40.20;31.60;;;;;;5074078;28;20024;-77
2022/08/11 13:10:01;;;;;;;2.17;0.68;;;40.40;31.40;;;;;;5055568;28;20041;-77
2022/08/11 13:12:47;;;;;;;1.80;0.60;;;40.60;31.30;;;;;;5055909;28;20461;-77
2022/08/11 13:15:19;;;;;;;4.70;0.98;;;40.70;31.30;;;;;;5072443;28;20031;-76
2022/08/11 13:17:48;;;;;;;2.30;0.80;;;40.90;31.20;;;;;;5073816;28;20032;-77
2022/08/11 13:20:20;;;;;;;2.35;0.73;;;41.00;31.00;;;;;;5072172;28;20488;-76
2022/08/11 13:22:52;;;;;;;2.47;0.75;;;41.20;30.60;;;;;;5073628;28;20024;-76
2022/08/11 13:25:20;;;;;;;3.15;0.80;;;41.40;30.30;;;;;;5073331;28;20028;-78
2022/08/11 13:27:48;;;;;;;2.08;0.85;;;41.50;30.30;;;;;;5039602;28;20040;-78
2022/08/11 13:33:01;;;;;;;1.98;0.82;;;41.70;30.10;;;;;;5073705;28;20044;-77
2022/08/11 13:35:29;;;;;;;3.13;0.93;;;41.90;30.00;;;;;;5055700;28;20027;-77
2022/08/11 13:37:56;;;;;;;2.70;0.60;;;42.10;29.80;;;;;;5073328;28;20024;-77
2022/08/11 13:40:24;;;;;;;1.65;0.70;;;42.20;29.70;;;;;;5055673;28;20040;-83
2022/08/11 13:42:51;;;;;;;1.70;0.63;;;42.30;29.70;;;;;;5041355;28;20369;-82
2022/08/11 13:45:20;;;;;;;2.42;0.70;;;42.40;29.60;;;;;;5077349;28;20021;-83
2022/08/11 13:47:48;;;;;;;2.28;0.80;;;42.60;29.60;;;;;;5043046;28;20124;-84
2022/08/11 13:50:14;;;;;;;1.55;0.70;;;42.80;29.70;;;;;;5042821;28;20052;-84
2022/08/11 13:52:41;;;;;;;2.72;0.75;;;42.90;29.60;;;;;;5059531;28;20499;-82
2022/08/11 13:55:20;;;;;;;1.58;0.77;;;43.00;29.90;;;;;;5059168;28;20580;-83
2022/08/11 13:57:56;;;;;;;1.45;0.77;;;43.10;29.20;;;;;;5077013;28;20032;-84
2022/08/11 14:00:22;;;;;;;3.58;0.70;;;43.20;29.00;;;;;;5075800;28;20028;-78
2022/08/11 14:02:49;;;;;;;1.38;0.70;;;43.40;29.20;;;;;;5078001;28;20145;-77
2022/08/11 14:05:18;;;;;;;2.45;0.70;;;43.40;28.90;;;;;;5077098;28;20048;-77
2022/08/11 14:07:50;;;;;;;2.47;0.70;;;43.60;28.90;;;;;;5076956;28;20063;-78
2022/08/11 14:10:19;;;;;;;2.35;0.77;;;43.70;28.70;;;;;;5075689;28;20685;-78
2022/08/11 14:15:42;;;;;;;1.17;0.60;;;43.90;28.60;;;;;;5077440;28;20503;-78
2022/08/11 14:18:18;;;;;;;2.03;0.68;;;44.00;28.60;;;;;;5077013;28;20035;-78
2022/08/11 14:23:45;;;;;;;1.27;0.80;;;44.20;28.40;;;;;;5076668;28;20051;-77
2022/08/11 14:26:22;;;;;;;3.00;0.65;;;44.20;28.30;;;;;;5075540;28;20449;-77
2022/08/11 14:28:52;;;;;;;2.90;0.63;;;44.20;28.50;;;;;;5075407;28;20484;-77
2022/08/11 14:31:18;;;;;;;3.38;0.80;;;44.30;29.00;;;;;;5075451;28;20399;-77
2022/08/11 14:33:45;;;;;;;2.75;0.80;;;44.30;28.40;;;;;;5058355;28;20123;-78
2022/08/11 14:36:12;;;;;;;1.73;0.88;;;44.40;28.30;;;;;;5076507;28;20035;-77
2022/08/11 14:38:39;;;;;;;2.88;0.60;;;44.40;28.30;;;;;;5075355;28;20036;-78
2022/08/11 14:49:38;;;;;;;2.83;0.70;;;44.70;28.20;;;;;;5042340;28;20032;-79
2022/08/11 14:52:08;;;;;;;1.73;0.77;;;44.80;28.30;;;;;;5076440;28;20047;-78
2022/08/11 14:57:22;;;;;;;1.75;0.80;;;44.90;27.90;;;;;;5076323;28;20112;-78
2022/08/11 14:59:49;;;;;;;3.38;0.90;;;45.00;27.80;;;;;;5074870;28;20070;-77
2022/08/11 15:05:03;;;;;;;2.85;0.70;;;45.20;27.70;;;;;;5076385;28;20055;-79
2022/08/11 15:07:31;;;;;;;4.22;0.70;;;45.10;27.60;;;;;;5057891;28;20358;-77
2022/08/11 15:09:59;;;;;;;4.88;0.75;;;45.20;27.60;;;;;;5074446;28;20048;-77
2022/08/11 15:12:26;;;;;;;3.42;0.77;;;45.20;27.60;;;;;;5058370;28;20041;-78
2022/08/11 15:17:39;;;;;;;1.63;0.60;;;45.30;27.50;;;;;;5076211;28;20060;-78
2022/08/11 15:25:44;;;;;;;1.80;0.60;;;45.20;27.40;;;;;;5076141;28;20035;-78
2022/08/11 15:39:33;;;;;;;2.30;0.60;;;44.70;27.20;;;;;;5074658;28;20237;-77
2022/08/11 15:47:56;;;;;;;1.83;0.70;;;43.40;27.30;;;;;;5055012;28;20071;-78
2022/08/11 15:50:29;;;;;;;1.73;0.85;;;43.00;27.60;;;;;;5047313;28;20031;-77
2022/08/11 15:53:31;;;;;;;5.57;1.08;;;42.60;27.80;;;;;;5074871;28;20036;-77
2022/08/11 15:55:59;;;;;;;1.95;0.73;;;42.00;27.90;;;;;;5073235;28;20040;-77
2022/08/11 16:04:18;;;;;;;2.75;0.80;;;40.90;28.20;;;;;;5074674;28;20107;-76
2022/08/11 16:06:54;;;;;;;1.27;0.60;;;40.60;28.40;;;;;;5074792;28;20128;-77
2022/08/11 16:09:46;;;;;;;3.33;0.80;;;40.30;28.50;;;;;;5074773;28;20021;-77
2022/08/11 16:12:15;;;;;;;1.50;0.85;;;40.10;28.80;;;;;;5056446;28;20036;-76
2022/08/11 16:17:45;;;;;;;3.08;0.77;;;39.60;28.90;;;;;;5074706;28;20035;-77
2022/08/11 16:20:18;;;;;;;2.03;0.70;;;39.40;28.90;;;;;;5074569;28;20020;-77
2022/08/11 16:22:46;;;;;;;2.92;0.82;;;39.20;29.00;;;;;;5074968;28;20089;-79
2022/08/11 16:25:23;;;;;;;2.33;0.80;;;39.10;29.00;;;;;;5040203;28;20032;-78
2022/08/11 16:27:52;;;;;;;1.35;0.70;;;38.80;29.50;;;;;;5074422;28;20035;-77
2022/08/11 16:30:18;;;;;;;1.60;0.90;;;38.70;29.10;;;;;;5074340;28;20158;-77
2022/08/11 16:32:51;;;;;;;1.90;1.10;;;38.60;29.30;;;;;;5072952;28;20052;-78
2022/08/11 16:40:54;;;;;;;2.83;1.10;;;38.10;29.60;;;;;;5074322;28;20051;-77
2022/08/11 16:48:46;;;;;;;3.33;1.17;;;37.50;29.90;;;;;;5073766;28;20029;-82
2022/08/11 16:51:13;;;;;;;2.83;1.10;;;37.40;30.60;;;;;;5055798;28;20017;-82
2022/08/11 16:53:41;;;;;;;2.00;0.80;;;37.30;30.10;;;;;;5073673;28;20032;-82
2022/08/11 16:56:08;;;;;;;2.97;0.98;;;37.20;30.20;;;;;;5088936;28;20482;-82
2022/08/11 17:01:23;;;;;;;2.25;0.70;;;37.00;30.40;;;;;;5073797;28;20031;-83
2022/08/11 17:18:01;;;;;;;2.85;0.80;;;36.50;31.70;;;;;;5072875;28;20040;-82
2022/08/11 17:20:28;;;;;;;3.28;0.60;;;36.30;31.60;;;;;;5073430;28;20029;-81
2022/08/11 17:25:39;;;;;;;4.03;0.95;;;36.20;32.00;;;;;;5073618;28;20376;-82
2022/08/11 17:28:06;;;;;;;2.33;0.68;;;36.10;32.20;;;;;;5055311;28;20098;-82
2022/08/11 17:36:04;;;;;;;1.33;0.52;;;35.70;33.20;;;;;;5086656;28;20044;-82
2022/08/11 17:38:32;;;;;;;1.23;0.60;;;35.60;32.50;;;;;;5088555;28;20473;-82
2022/08/11 17:49:19;;;;;;;2.00;0.70;;;35.20;32.80;;;;;;5073461;28;20106;-82
2022/08/11 18:00:24;;;;;;;2.03;0.70;;;34.70;33.00;;;;;;5011403;28;20030;-82
2022/08/11 18:05:42;;;;;;;1.40;0.60;;;34.50;33.10;;;;;;5073756;28;20063;-77
